Flight Track Log - Related Links

Times and Time Zones

All times are in EDT time to prevent confusion due to time zone crossing. See the FLG4139 flight status page for this flight to view local times or setup timezone preferences in your user account.

Time Position Orientation Groundspeed Altitude Reporting Facility
EDT Latitude Longitude Course Direction KTS MPH feet Rate Location/Type
Wed 08:23:37 AM 41.9100 -91.8006 324° Northwest 212 244 4,100  Level Minneapolis Center
Wed 08:24:40 AM 41.9611 -91.8436 328° Northwest 217 250 6,200 2,544 Climbing Chicago Center
Wed 08:25:42 AM 42.0178 -91.8964 325° Northwest 245 282 9,400 2,323 Climbing Chicago Center
Wed 08:26:44 AM 42.0775 -91.9511 326° Northwest 258 297 11,000 2,032 Climbing Chicago Center
Wed 08:27:46 AM 42.1628 -92.0300 326° Northwest 303 349 13,600 2,323 Climbing Chicago Center
Wed 08:28:00 AM 42.2263 -92.0596 324° Northwest  Level FlightAware Approximate
Wed 08:28:48 AM 42.2353 -92.0969 326° Northwest 316 364 15,800  Level Chicago Center
Wed 08:29:50 AM 42.3094 -92.1653 326° Northwest 319 367 17,100 1,403 Climbing Chicago Center
Wed 08:30:52 AM 42.3861 -92.2378 325° Northwest 331 381 18,700 1,403 Climbing Chicago Center
Wed 08:31:54 AM 42.4636 -92.3094 326° Northwest 335 386 20,000 629 Climbing Chicago Center
Wed 08:32:56 AM 42.5422 -92.3836 325° Northwest 341 392 20,000  Level Chicago Center
Wed 08:33:58 AM 42.6392 -92.4725 326° Northwest 344 396 20,000  Level Chicago Center
Wed 08:35:00 AM 42.7217 -92.5486 326° Northwest 355 409 20,000  Level Chicago Center
Wed 08:35:58 AM 42.8044 -92.6258 326° Northwest 357 411 20,000  Level Minneapolis Center
Wed 08:37:00 AM 42.8864 -92.7028 325° Northwest 358 412 20,000  Level Minneapolis Center
Wed 08:39:03 AM 43.0519 -92.8542 326° Northwest 360 414 20,000  Level Minneapolis Center
Wed 08:40:05 AM 43.1344 -92.9325 325° Northwest 360 414 20,000  Level Minneapolis Center
Wed 08:41:07 AM 43.2172 -93.0072 327° Northwest 360 414 20,000  Level Minneapolis Center
Wed 08:42:09 AM 43.3136 -93.1006 325° Northwest 359 413 20,000  Level Minneapolis Center
Wed 08:43:10 AM 43.3933 -93.1733 326° Northwest 351 404 20,000  Level Minneapolis Center
Wed 08:44:12 AM 43.4708 -93.2467 326° Northwest 344 396 20,000  Level Minneapolis Center
Wed 08:45:14 AM 43.5575 -93.2917 339° North 350 403 20,000  Level Minneapolis Center
Wed 08:46:16 AM 43.6528 -93.2772 North 345 397 20,000  Level Minneapolis Center
Wed 08:47:17 AM 43.7486 -93.2675 North 345 397 20,000 -1,232 Level Minneapolis Center
Wed 08:49:21 AM 43.9589 -93.2467 North 346 398 16,200 -1,895 Descending Minneapolis Center
Wed 08:51:24 AM 44.1383 -93.2306 North 325 374 12,200 -1,978 Descending Minneapolis Center
Wed 08:52:26 AM 44.2306 -93.2217 North 329 379 10,100 -1,065 Descending Minneapolis Center
Wed 08:53:28 AM 44.3147 -93.2128 North 304 350 10,000 -484 Descending Minneapolis Center
Wed 08:54:30 AM 44.3914 -93.2053 North 278 320 9,100 -488 Descending Minneapolis Center
Wed 08:55:31 AM 44.4667 -93.1978 North 275 316 9,000 -49 Descending Minneapolis Center
Wed 08:56:33 AM 44.5583 -93.1878 North 275 316 9,000  Level Minneapolis Center
Wed 08:57:34 AM 44.6339 -93.1864 North 275 316 9,000 -439 Level Minneapolis Center
Wed 08:58:36 AM 44.7036 -93.2275 337° Northwest 267 307 8,100 -429 Descending Minneapolis Center
Wed 08:59:40 AM 44.7761 -93.2719 336° Northwest 267 307 8,100 -144 Level Minneapolis Center
Wed 09:00:41 AM 44.8269 -93.3203 326° Northwest 224 258 7,800 -927 Descending Minneapolis Center
Wed 09:01:43 AM 44.8614 -93.3883 306° West 215 247 6,200 -829 Descending Minneapolis Center
Wed 09:02:44 AM 44.8989 -93.4553 308° West 216 249 6,100 -244 Descending Minneapolis Center
Wed 09:03:46 AM 44.9394 -93.5136 314° West 216 249 5,700 -726 Descending Minneapolis Center
Wed 09:04:48 AM 44.9683 -93.4469 58° Northeast 235 270 4,600 -1,366 Descending Minneapolis Center
Wed 09:05:49 AM 44.9400 -93.3531 113° Southeast 212 244 2,900 -1,268 Descending Minneapolis Center
Wed 09:06:51 AM 44.9153 -93.2964 122° Southeast 172 198 2,000 -780 Descending Minneapolis Center
Wed 09:07:52 AM 44.8956 -93.2519 122° Southeast 136 157 1,300 -689 Descending Minneapolis Center
Wed 09:09:00 AM 44.8820 -93.2218 107° East  Level Estimated
Wed 09:16:00 AM 44.8820 -93.2218 107° East  Level Estimated
Wed 09:17:00 AM 44.8820 -93.2218 284° West  Level Estimated

Login

Don't have an account? Register now (free) for customized features, flight alerts, and more!